ウルムチ地窩堡国際空港の過去48時間の天気

ウルムチ地窩堡国際空港 (Urum-Qi / Diwopu)

現在時刻: 9/23 05:25 CST (9/22 21:25 UTC) 以下の時間は現地時間です。

過去48時間のMETAR気象情報
時間 風向 風速(m/s) 視程 気温(℃) 湿度(%) 気圧(hPa) 天気現象
23 05:00 南東 5 10km以上 26 17 1014
23 04:30 南東 5 10km以上 27 15 1014
23 04:00 南東 7 10km以上 27 15 1014
23 03:30 南南東 8 10km以上 28 14 1014
ZWWW 222100Z 14005MPS CAVOK 26/M01 Q1014 NOSIG
ZWWW 222030Z 14005MPS CAVOK 27/M02 Q1014 NOSIG
ZWWW 222000Z 14007MPS CAVOK 27/M02 Q1014 NOSIG
ZWWW 221930Z 15008MPS CAVOK 28/M02 Q1014 NOSIG